Terminal Aerodrome Forecast
Issued by NWS

Home | Current Version | Previous Version | Text Only | Print | Product List | Glossary On
Versions: 1 2 3 4 5 6 7 8 9 10 11 12 13 14 15 16
000
FTUS46 KLOX 042339
TAFOXR
TAF
KOXR 042339Z 0500/0524 27015KT P6SM SCT200
     FM050300 28007KT P6SM SCT200
     FM050900 VRB03KT P6SM SCT200
     FM051900 26013KT P6SM SCT200=

USA.gov is the U.S. government's official web portal to all federal, state and local government web resources and services.